createdAt,value
2023-02-16T00:01:53.513Z,0.50
2023-02-16T00:04:30.135Z,0.50
2023-02-16T00:06:57.545Z,0.40
2023-02-16T00:09:24.998Z,0.40
2023-02-16T00:12:11.552Z,0.40
2023-02-16T00:14:39.882Z,0.40
2023-02-16T00:17:06.975Z,0.40
2023-02-16T00:19:42.087Z,0.40
2023-02-16T00:22:11.540Z,0.47
2023-02-16T00:24:38.434Z,0.47
2023-02-16T00:27:13.646Z,0.30
2023-02-16T00:29:41.957Z,0.40
2023-02-16T00:32:12.357Z,0.40
2023-02-16T00:34:41.653Z,0.40
2023-02-16T00:37:10.780Z,0.40
2023-02-16T00:39:39.736Z,0.50
2023-02-16T00:42:18.558Z,0.40
2023-02-16T00:44:48.435Z,0.30
2023-02-16T00:47:27.654Z,0.40
2023-02-16T00:49:55.373Z,0.40
2023-02-16T00:52:29.450Z,0.40
2023-02-16T00:54:57.596Z,0.50
2023-02-16T00:57:25.976Z,0.50
2023-02-16T01:00:01.509Z,0.40
2023-02-16T01:02:29.089Z,0.30
2023-02-16T01:04:55.945Z,0.40
2023-02-16T01:07:41.149Z,0.40
2023-02-16T01:10:27.079Z,0.40
2023-02-16T01:12:53.941Z,0.50
2023-02-16T01:15:24.319Z,0.50
2023-02-16T01:17:51.043Z,0.30
2023-02-16T01:20:21.616Z,0.40
2023-02-16T01:22:48.731Z,0.40
2023-02-16T01:25:15.941Z,0.40
2023-02-16T01:27:42.967Z,0.50
2023-02-16T01:30:17.325Z,0.30
2023-02-16T01:32:47.407Z,0.38
2023-02-16T01:35:14.131Z,0.40
2023-02-16T01:37:40.865Z,0.40
2023-02-16T01:40:34.307Z,0.50
2023-02-16T01:43:22.447Z,0.50
2023-02-16T01:45:57.058Z,0.50
2023-02-16T01:48:29.111Z,0.30
2023-02-16T01:50:59.180Z,0.40
2023-02-16T01:53:38.032Z,0.40
2023-02-16T01:56:09.412Z,0.50
2023-02-16T01:58:43.229Z,0.50
2023-02-16T02:01:42.596Z,0.40
2023-02-16T02:04:38.204Z,0.40
2023-02-16T02:07:05.031Z,0.40
2023-02-16T02:09:56.528Z,0.30
2023-02-16T02:12:42.139Z,0.50
2023-02-16T02:15:11.213Z,0.50
2023-02-16T02:17:38.088Z,0.50
2023-02-16T02:20:47.460Z,0.40
2023-02-16T02:23:33.912Z,0.47
2023-02-16T02:26:30.959Z,0.30
2023-02-16T02:29:25.705Z,0.30
2023-02-16T02:32:16.891Z,0.30
2023-02-16T02:35:28.648Z,0.40
2023-02-16T02:38:23.313Z,0.40
2023-02-16T02:41:11.966Z,0.30
2023-02-16T02:44:03.639Z,0.40
2023-02-16T02:46:35.168Z,0.40
2023-02-16T02:49:01.929Z,0.40
2023-02-16T02:51:28.732Z,0.50
2023-02-16T02:54:23.798Z,0.55
2023-02-16T02:57:20.917Z,0.40
2023-02-16T03:00:19.793Z,0.30
2023-02-16T03:02:50.620Z,0.30
2023-02-16T03:05:18.988Z,0.40
2023-02-16T03:07:49.322Z,0.40
2023-02-16T03:10:56.062Z,0.50
2023-02-16T03:13:30.988Z,0.50
2023-02-16T03:15:59.389Z,0.50
2023-02-16T03:18:45.839Z,0.30
2023-02-16T03:21:33.694Z,0.35
2023-02-16T03:24:27.049Z,0.30
2023-02-16T03:27:13.950Z,0.40
2023-02-16T03:29:40.939Z,0.40
2023-02-16T03:32:07.990Z,0.40
2023-02-16T03:34:36.428Z,0.50
2023-02-16T03:37:03.784Z,0.30
2023-02-16T03:39:32.209Z,0.40
2023-02-16T03:41:58.869Z,0.40
2023-02-16T03:44:25.746Z,0.50
2023-02-16T03:46:52.710Z,0.40
2023-02-16T03:49:19.746Z,0.38
2023-02-16T03:51:47.084Z,0.40
2023-02-16T03:54:14.151Z,0.50
2023-02-16T03:56:40.946Z,0.50
2023-02-16T03:59:07.617Z,0.30
2023-02-16T04:01:34.542Z,0.40
2023-02-16T04:04:01.285Z,0.40
2023-02-16T04:06:28.054Z,0.50
2023-02-16T04:08:54.813Z,0.40
2023-02-16T04:11:40.388Z,0.40
2023-02-16T04:14:07.383Z,0.40
2023-02-16T04:16:34.178Z,0.40
2023-02-16T04:19:01.122Z,0.50
2023-02-16T04:21:27.809Z,0.40
2023-02-16T04:23:54.505Z,0.40
2023-02-16T04:26:21.252Z,0.50
2023-02-16T04:28:48.093Z,0.50
2023-02-16T04:31:14.900Z,0.50
2023-02-16T04:33:41.639Z,0.30
2023-02-16T04:36:08.801Z,0.40
2023-02-16T04:38:35.546Z,0.50
2023-02-16T04:41:02.753Z,0.50
2023-02-16T04:43:29.683Z,0.30
2023-02-16T04:45:56.526Z,0.30
2023-02-16T04:48:23.247Z,0.40
2023-02-16T04:50:50.585Z,0.40
2023-02-16T04:53:17.350Z,0.50
2023-02-16T04:55:50.544Z,0.30
2023-02-16T04:58:17.693Z,0.40
2023-02-16T05:00:45.202Z,0.50
2023-02-16T05:03:12.005Z,0.50
2023-02-16T05:05:38.920Z,0.50
2023-02-16T05:08:05.828Z,0.30
2023-02-16T05:10:32.700Z,0.40
2023-02-16T05:13:18.179Z,0.40
2023-02-16T05:15:46.073Z,0.50
2023-02-16T05:18:13.123Z,0.38
2023-02-16T05:20:58.658Z,0.40
2023-02-16T05:23:25.385Z,0.40
2023-02-16T05:25:52.087Z,0.50
2023-02-16T05:28:18.833Z,0.50
2023-02-16T05:30:46.456Z,0.30
2023-02-16T05:33:13.486Z,0.40
2023-02-16T05:35:40.259Z,0.50
2023-02-16T05:38:06.902Z,0.50
2023-02-16T05:40:33.914Z,0.40
2023-02-16T05:43:00.562Z,0.40
2023-02-16T05:45:27.430Z,0.40
2023-02-16T05:47:54.180Z,0.50
2023-02-16T05:50:20.830Z,0.40
2023-02-16T05:52:47.694Z,0.40
2023-02-16T05:55:14.417Z,0.40
2023-02-16T05:57:41.109Z,0.50
2023-02-16T06:00:08.866Z,0.50
2023-02-16T06:02:35.591Z,0.30
2023-02-16T06:05:02.348Z,0.40
2023-02-16T06:07:29.005Z,0.40
2023-02-16T06:09:55.763Z,0.50
2023-02-16T06:12:22.403Z,0.50
2023-02-16T06:14:49.122Z,0.32
2023-02-16T06:17:15.937Z,0.40
2023-02-16T06:19:42.648Z,0.50
2023-02-16T06:22:09.434Z,0.50
2023-02-16T06:24:37.279Z,0.32
2023-02-16T06:27:04.506Z,0.40
2023-02-16T06:29:32.060Z,0.50
2023-02-16T06:31:59.204Z,0.50
2023-02-16T06:34:26.013Z,0.40
2023-02-16T06:36:52.839Z,0.30
2023-02-16T06:39:19.887Z,0.40
2023-02-16T06:41:46.713Z,0.40
2023-02-16T06:44:15.622Z,0.50
2023-02-16T06:46:44.253Z,0.40
2023-02-16T06:49:18.679Z,0.40
2023-02-16T06:51:46.268Z,0.40
2023-02-16T06:54:13.282Z,0.50
2023-02-16T06:56:40.435Z,0.30
2023-02-16T06:59:07.429Z,0.40
2023-02-16T07:01:34.315Z,0.40
2023-02-16T07:04:00.978Z,0.50
2023-02-16T07:06:29.023Z,0.30
2023-02-16T07:08:56.147Z,0.32
2023-02-16T07:11:23.245Z,0.40
2023-02-16T07:13:50.092Z,0.40
2023-02-16T07:16:16.942Z,0.50
2023-02-16T07:18:43.787Z,0.30
2023-02-16T07:21:10.762Z,0.40
2023-02-16T07:23:38.012Z,0.40
2023-02-16T07:26:05.169Z,0.50
2023-02-16T07:28:31.935Z,0.40
2023-02-16T07:30:58.645Z,0.40
2023-02-16T07:33:25.388Z,0.40
2023-02-16T07:35:52.221Z,0.40
2023-02-16T07:38:18.886Z,0.50
2023-02-16T07:40:45.614Z,0.40
2023-02-16T07:43:12.413Z,0.30
2023-02-16T07:45:39.240Z,0.40
2023-02-16T07:48:06.170Z,0.40
2023-02-16T07:50:32.906Z,0.50
2023-02-16T07:53:02.812Z,0.50
2023-02-16T07:55:30.488Z,0.40
2023-02-16T07:57:57.229Z,0.30
2023-02-16T08:00:24.016Z,0.30
2023-02-16T08:02:50.956Z,0.40
2023-02-16T08:05:18.097Z,0.30
2023-02-16T08:07:46.688Z,0.40
2023-02-16T08:10:14.125Z,0.40
2023-02-16T08:12:40.845Z,0.40
2023-02-16T08:15:08.210Z,0.40
2023-02-16T08:17:35.508Z,0.40
2023-02-16T08:20:03.626Z,0.40
2023-02-16T08:22:30.738Z,0.40
2023-02-16T08:24:57.470Z,0.30
2023-02-16T08:27:24.812Z,0.40
2023-02-16T08:29:52.038Z,0.40
2023-02-16T08:32:20.349Z,0.30
2023-02-16T08:34:47.238Z,0.30
2023-02-16T08:37:13.947Z,0.30
2023-02-16T08:39:41.445Z,0.30
2023-02-16T08:42:11.091Z,0.20
2023-02-16T08:44:37.958Z,0.22
2023-02-16T08:47:04.774Z,0.30
2023-02-16T08:49:31.675Z,0.30
2023-02-16T08:51:59.545Z,0.30
2023-02-16T08:54:30.394Z,0.30
2023-02-16T08:56:59.719Z,0.30
2023-02-16T08:59:28.835Z,0.30
2023-02-16T09:01:59.981Z,0.22
2023-02-16T09:04:29.162Z,0.30
2023-02-16T09:06:57.940Z,0.25
2023-02-16T09:09:26.383Z,0.20
2023-02-16T09:11:53.438Z,0.30
2023-02-16T09:14:21.529Z,0.20
2023-02-16T09:16:48.503Z,0.30
2023-02-16T09:19:17.996Z,0.20
2023-02-16T09:21:46.881Z,0.30
2023-02-16T09:24:13.595Z,0.20
2023-02-16T09:26:42.846Z,0.30
2023-02-16T09:29:11.022Z,0.15
2023-02-16T09:31:39.751Z,0.20
2023-02-16T09:34:17.598Z,0.20
2023-02-16T09:36:44.876Z,0.10
2023-02-16T09:39:12.306Z,0.20
2023-02-16T09:41:58.910Z,0.20
2023-02-16T09:44:44.528Z,0.17
2023-02-16T09:47:36.428Z,0.10
2023-02-16T09:50:52.229Z,0.20
2023-02-16T09:53:31.412Z,0.10
2023-02-16T09:56:04.972Z,0.10
2023-02-16T09:58:48.257Z,0.10
2023-02-16T10:01:31.793Z,0.00
2023-02-16T10:04:12.050Z,0.00
2023-02-16T10:07:01.876Z,0.00
2023-02-16T10:09:30.418Z,0.00
2023-02-16T10:12:13.002Z,0.00
2023-02-16T10:14:48.583Z,0.00
2023-02-16T10:17:32.062Z,0.00
2023-02-16T10:20:25.762Z,0.00
2023-02-16T10:22:58.187Z,0.00
2023-02-16T10:25:37.236Z,0.00
2023-02-16T10:28:25.953Z,0.00
2023-02-16T10:31:22.505Z,0.00
2023-02-16T10:34:18.552Z,0.00
2023-02-16T10:36:57.243Z,0.00
2023-02-16T10:39:42.420Z,0.00
2023-02-16T10:42:25.013Z,0.00
2023-02-16T10:45:00.851Z,0.00
2023-02-16T10:47:34.391Z,0.00
2023-02-16T10:50:01.424Z,0.00
2023-02-16T10:52:33.770Z,0.00
2023-02-16T10:55:01.461Z,0.00
2023-02-16T10:57:31.291Z,0.00
2023-02-16T11:00:01.788Z,0.00
2023-02-16T11:02:35.223Z,0.00
2023-02-16T11:18:05.405Z,0.00
2023-02-16T11:20:55.520Z,0.00
2023-02-16T11:23:22.861Z,0.00
2023-02-16T11:26:12.030Z,0.00
2023-02-16T11:28:47.875Z,0.00
2023-02-16T11:31:37.599Z,0.00
2023-02-16T11:34:06.456Z,0.00
2023-02-16T11:36:33.221Z,0.00
2023-02-16T11:39:13.409Z,0.00
2023-02-16T11:41:56.761Z,0.00
2023-02-16T11:44:30.284Z,0.00
2023-02-16T11:46:58.167Z,0.00
2023-02-16T11:49:27.931Z,0.00
2023-02-16T11:51:54.720Z,0.00
2023-02-16T11:54:22.365Z,0.00
2023-02-16T11:57:11.419Z,0.00
2023-02-16T11:59:40.114Z,0.00
2023-02-16T12:02:31.980Z,0.00
2023-02-16T12:05:17.622Z,0.00
2023-02-16T12:08:16.206Z,0.00
2023-02-16T12:11:02.171Z,0.00
2023-02-16T12:13:33.904Z,0.00
2023-02-16T12:16:15.382Z,0.00
2023-02-16T12:19:05.376Z,0.00
2023-02-16T12:21:52.914Z,0.00
2023-02-16T12:24:50.948Z,0.00
2023-02-16T12:27:28.840Z,0.00
2023-02-16T12:30:20.324Z,0.00
2023-02-16T12:33:12.091Z,0.10
2023-02-16T12:36:06.642Z,0.10
2023-02-16T12:39:16.861Z,0.10
2023-02-16T12:41:48.171Z,0.10
2023-02-16T12:44:31.689Z,0.10
2023-02-16T12:47:04.688Z,0.10
2023-02-16T12:49:43.629Z,0.10
2023-02-16T12:52:41.579Z,0.10
2023-02-16T12:55:32.789Z,0.10
2023-02-16T12:58:15.040Z,0.10
2023-02-16T13:01:01.566Z,0.10
2023-02-16T13:03:50.265Z,0.10
2023-02-16T13:06:26.532Z,0.10
2023-02-16T13:09:11.736Z,0.10
2023-02-16T13:11:44.011Z,0.10
2023-02-16T13:14:17.789Z,0.10
2023-02-16T13:16:50.046Z,0.10
2023-02-16T13:19:17.184Z,0.10
2023-02-16T13:21:54.301Z,0.10
2023-02-16T13:24:58.300Z,0.10
2023-02-16T13:27:37.263Z,0.10
2023-02-16T13:30:34.814Z,0.10
2023-02-16T13:33:08.212Z,0.10
2023-02-16T13:35:59.469Z,0.10
2023-02-16T13:38:32.551Z,0.10
2023-02-16T13:41:11.688Z,0.10
2023-02-16T13:44:01.906Z,0.10
2023-02-16T13:46:31.149Z,0.10
2023-02-16T13:48:59.374Z,0.10
2023-02-16T13:51:39.943Z,0.10
2023-02-16T13:54:08.750Z,0.10
2023-02-16T13:56:37.242Z,0.10
2023-02-16T13:59:19.540Z,0.10
2023-02-16T14:01:48.450Z,0.10
2023-02-16T14:04:27.212Z,0.10
2023-02-16T14:07:03.201Z,0.10
2023-02-16T14:09:38.769Z,0.10
2023-02-16T14:12:17.141Z,0.10
2023-02-16T14:14:43.927Z,0.10
2023-02-16T14:17:19.622Z,0.10
2023-02-16T14:20:05.242Z,0.10
2023-02-16T14:22:39.595Z,0.10
2023-02-16T14:25:27.526Z,0.10
2023-02-16T14:27:57.687Z,0.10
2023-02-16T14:30:42.481Z,0.17
2023-02-16T14:33:12.283Z,0.10
2023-02-16T14:35:42.060Z,0.10
2023-02-16T14:38:20.847Z,0.10
2023-02-16T14:40:55.408Z,0.10
2023-02-16T14:43:33.569Z,0.10
2023-02-16T14:46:21.671Z,0.10
2023-02-16T14:49:36.316Z,0.20
2023-02-16T14:52:08.842Z,0.10
2023-02-16T14:54:49.348Z,0.20
2023-02-16T14:57:18.351Z,0.10
2023-02-16T14:59:50.673Z,0.10
2023-02-16T15:02:54.219Z,0.10
2023-02-16T15:05:24.131Z,0.20
2023-02-16T15:08:11.481Z,0.20
2023-02-16T15:10:39.864Z,0.10
2023-02-16T15:13:06.863Z,0.10
2023-02-16T15:15:43.672Z,0.10
2023-02-16T15:18:22.687Z,0.10
2023-02-16T15:20:53.052Z,0.10
2023-02-16T15:23:32.198Z,0.20
2023-02-16T15:26:02.158Z,0.20
2023-02-16T15:28:34.331Z,0.20
2023-02-16T15:31:07.467Z,0.10
2023-02-16T15:33:39.003Z,0.13
2023-02-16T15:36:14.795Z,0.10
2023-02-16T15:38:56.705Z,0.15
2023-02-16T15:41:32.615Z,0.10
2023-02-16T15:44:02.349Z,0.10
2023-02-16T15:46:37.056Z,0.10
2023-02-16T15:49:26.806Z,0.10
2023-02-16T15:51:57.047Z,0.20
2023-02-16T15:54:26.783Z,0.20
2023-02-16T15:56:56.604Z,0.20
2023-02-16T15:59:37.388Z,0.10
2023-02-16T16:02:15.262Z,0.20
2023-02-16T16:04:54.988Z,0.20
2023-02-16T16:07:37.106Z,0.20
2023-02-16T16:10:24.853Z,0.20
2023-02-16T16:12:55.822Z,0.20
2023-02-16T16:15:24.590Z,0.20
2023-02-16T16:17:53.058Z,0.15
2023-02-16T16:20:32.752Z,0.10
2023-02-16T16:23:04.507Z,0.10
2023-02-16T16:25:34.300Z,0.10
2023-02-16T16:28:02.295Z,0.10
2023-02-16T16:30:34.897Z,0.20
2023-02-16T16:33:03.551Z,0.20
2023-02-16T16:35:41.546Z,0.10
2023-02-16T16:38:22.844Z,0.10
2023-02-16T16:40:55.530Z,0.10
2023-02-16T16:43:45.140Z,0.13
2023-02-16T16:46:25.773Z,0.10
2023-02-16T16:49:00.161Z,0.10
2023-02-16T16:51:27.757Z,0.10
2023-02-16T16:54:00.628Z,0.20
2023-02-16T16:56:29.191Z,0.10
2023-02-16T16:58:59.369Z,0.10
2023-02-16T17:01:28.267Z,0.20
2023-02-16T17:03:55.194Z,0.20
2023-02-16T17:06:22.427Z,0.10
2023-02-16T17:08:49.311Z,0.10
2023-02-16T17:11:28.217Z,0.20
2023-02-16T17:13:57.149Z,0.20
2023-02-16T17:16:29.750Z,0.20
2023-02-16T17:18:56.508Z,0.10
2023-02-16T17:21:23.299Z,0.10
2023-02-16T17:23:53.063Z,0.25
2023-02-16T17:26:21.082Z,0.10
2023-02-16T17:28:48.120Z,0.10
2023-02-16T17:31:15.015Z,0.20
2023-02-16T17:33:41.769Z,0.10
2023-02-16T17:36:13.345Z,0.20
2023-02-16T17:38:40.199Z,0.20
2023-02-16T17:41:07.146Z,0.10
2023-02-16T17:43:33.950Z,0.20
2023-02-16T17:46:04.637Z,0.20
2023-02-16T17:48:33.165Z,0.10
2023-02-16T17:50:59.926Z,0.10
2023-02-16T17:53:27.936Z,0.30
2023-02-16T17:55:57.769Z,0.10
2023-02-16T17:58:25.430Z,0.17
2023-02-16T18:00:52.528Z,0.20
2023-02-16T18:03:19.500Z,0.20
2023-02-16T18:05:46.465Z,0.20
2023-02-16T18:08:13.374Z,0.25
2023-02-16T18:10:49.860Z,0.20
2023-02-16T18:13:17.479Z,0.20
2023-02-16T18:15:49.845Z,0.30
2023-02-16T18:18:19.959Z,0.10
2023-02-16T18:20:49.165Z,0.20
2023-02-16T18:23:16.568Z,0.20
2023-02-16T18:25:44.183Z,0.20
2023-02-16T18:28:18.329Z,0.20
2023-02-16T18:30:47.818Z,0.17
2023-02-16T18:33:15.143Z,0.30
2023-02-16T18:35:42.035Z,0.20
2023-02-16T18:38:08.877Z,0.20
2023-02-16T18:40:35.925Z,0.20
2023-02-16T18:43:02.734Z,0.28
2023-02-16T18:45:29.408Z,0.20
2023-02-16T18:47:56.148Z,0.22
2023-02-16T18:50:22.851Z,0.20
2023-02-16T18:52:49.702Z,0.20
2023-02-16T18:55:16.692Z,0.20
2023-02-16T18:57:43.457Z,0.20
2023-02-16T19:00:12.107Z,0.20
2023-02-16T19:02:40.852Z,0.20
2023-02-16T19:05:09.046Z,0.20
2023-02-16T19:07:36.193Z,0.20
2023-02-16T19:10:05.122Z,0.20
2023-02-16T19:12:31.966Z,0.20
2023-02-16T19:14:58.642Z,0.20
2023-02-16T19:17:25.471Z,0.20
2023-02-16T19:19:52.127Z,0.20
2023-02-16T19:22:19.010Z,0.20
2023-02-16T19:24:45.816Z,0.20
2023-02-16T19:27:12.598Z,0.20
2023-02-16T19:29:39.454Z,0.20
2023-02-16T19:32:06.333Z,0.20
2023-02-16T19:34:33.741Z,0.20
2023-02-16T19:37:00.555Z,0.20
2023-02-16T19:39:27.608Z,0.20
2023-02-16T19:41:54.601Z,0.20
2023-02-16T19:44:21.337Z,0.20
2023-02-16T19:46:48.099Z,0.20
2023-02-16T19:49:15.715Z,0.20
2023-02-16T19:51:42.781Z,0.20
2023-02-16T19:54:09.699Z,0.20
2023-02-16T19:56:40.474Z,0.10
2023-02-16T19:59:08.063Z,0.30
2023-02-16T20:01:35.211Z,0.17
2023-02-16T20:04:02.905Z,0.20
2023-02-16T20:06:33.901Z,0.17
2023-02-16T20:09:01.389Z,0.17
2023-02-16T20:11:29.882Z,0.20
2023-02-16T20:13:57.631Z,0.10
2023-02-16T20:16:25.020Z,0.20
2023-02-16T20:18:51.775Z,0.20
2023-02-16T20:21:24.537Z,0.20
2023-02-16T20:23:55.000Z,0.22
2023-02-16T20:26:24.674Z,0.10
2023-02-16T20:28:52.163Z,0.20
2023-02-16T20:31:43.941Z,0.20
2023-02-16T20:34:10.929Z,0.20
2023-02-16T20:36:38.273Z,0.20
2023-02-16T20:39:07.069Z,0.30
2023-02-16T20:41:34.099Z,0.10
2023-02-16T20:44:01.040Z,0.20
2023-02-16T20:46:27.831Z,0.20
2023-02-16T20:48:54.838Z,0.10
2023-02-16T20:51:21.843Z,0.20
2023-02-16T20:53:49.388Z,0.20
2023-02-16T20:56:52.583Z,0.10
2023-02-16T20:59:19.992Z,0.10
2023-02-16T21:01:49.110Z,0.20
2023-02-16T21:04:18.204Z,0.10
2023-02-16T21:06:45.575Z,0.10
2023-02-16T21:09:13.496Z,0.20
2023-02-16T21:11:40.701Z,0.20
2023-02-16T21:14:09.033Z,0.10
2023-02-16T21:16:35.938Z,0.20
2023-02-16T21:19:05.576Z,0.20
2023-02-16T21:21:38.650Z,0.10
2023-02-16T21:24:05.667Z,0.20
2023-02-16T21:26:32.916Z,0.20
2023-02-16T21:28:59.904Z,0.10
2023-02-16T21:31:26.816Z,0.20
2023-02-16T21:33:56.521Z,0.10
2023-02-16T21:36:25.912Z,0.20
2023-02-16T21:38:53.193Z,0.20
2023-02-16T21:41:28.668Z,0.10
2023-02-16T21:44:02.948Z,0.20
2023-02-16T21:46:45.548Z,0.25
2023-02-16T21:49:16.025Z,0.10
2023-02-16T21:51:47.567Z,0.20
2023-02-16T21:54:16.869Z,0.20
2023-02-16T21:56:45.331Z,0.10
2023-02-16T21:59:14.889Z,0.20
2023-02-16T22:01:48.155Z,0.10
2023-02-16T22:04:18.547Z,0.20
2023-02-16T22:07:03.521Z,0.27
2023-02-16T22:09:33.507Z,0.20
2023-02-16T22:12:00.453Z,0.20
2023-02-16T22:14:40.612Z,0.20
2023-02-16T22:17:08.560Z,0.10
2023-02-16T22:19:35.609Z,0.20
2023-02-16T22:22:05.653Z,0.10
2023-02-16T22:24:59.199Z,0.20
2023-02-16T22:27:26.205Z,0.25
2023-02-16T22:29:59.130Z,0.10
2023-02-16T22:32:26.128Z,0.20
2023-02-16T22:34:54.425Z,0.20
2023-02-16T22:37:21.295Z,0.20
2023-02-16T22:39:48.297Z,0.30
2023-02-16T22:42:15.101Z,0.15
2023-02-16T22:44:42.002Z,0.30
2023-02-16T22:47:15.385Z,0.20
2023-02-16T22:49:45.265Z,0.20
2023-02-16T22:52:12.047Z,0.20
2023-02-16T22:54:38.950Z,0.28
2023-02-16T22:57:07.231Z,0.20
2023-02-16T22:59:34.346Z,0.30
2023-02-16T23:02:01.397Z,0.20
2023-02-16T23:04:28.208Z,0.30
2023-02-16T23:07:00.512Z,0.20
2023-02-16T23:09:33.680Z,0.30
2023-02-16T23:12:00.713Z,0.20
2023-02-16T23:14:33.053Z,0.30
2023-02-16T23:17:02.936Z,0.20
2023-02-16T23:19:29.912Z,0.25
2023-02-16T23:21:56.751Z,0.30
2023-02-16T23:24:27.440Z,0.20
2023-02-16T23:27:00.490Z,0.30
2023-02-16T23:29:33.147Z,0.20
2023-02-16T23:31:59.964Z,0.20
2023-02-16T23:34:26.954Z,0.30
2023-02-16T23:36:55.912Z,0.20
2023-02-16T23:39:22.843Z,0.20
2023-02-16T23:41:49.711Z,0.30
2023-02-16T23:44:19.624Z,0.20
2023-02-16T23:46:46.781Z,0.20
2023-02-16T23:49:16.914Z,0.30
2023-02-16T23:51:49.183Z,0.30
2023-02-16T23:54:16.170Z,0.20
2023-02-16T23:56:43.202Z,0.30
2023-02-16T23:59:10.015Z,0.30
